Spragueville, IA (52074)

7:46 PM CDT on May 06, 2015 (GMT -0500)
Mt Murrell at Joe Brown's | | Change Station
CLOSE
Current Station
Personal Weather Station
Location: Charlotte, IA
Elevation: 784 ft
Nearby Weather Stations

Elev 784 ft 41.98 °N, 90.50 °W | Updated 25 seconds ago

Overcast
Overcast
67.8 °F
Feels Like 67.8 °F
N
1.3
Wind Variable Wind from South
Gusts 2.7 mph

Today
High -- | Low -- °F
--% Chance of Precip.
Yesterday
High -- | Low -- °F
Precip. -- in
5:51 AM 8:06 PM
Waning Gibbous, 91% visible
Pressure 30.02 in
Visibility 10.0 miles
Clouds Clear
Dew Point 62 °F
Humidity 81%
Rainfall 0.00 in
Snow Depth Not available.
UV 0 out of 12
Pollen 10.70 out of 12
Air Quality Not available.
Flu Activity Local Activity
METAR KCWI 070035Z AUTO 28003KT 10SM CLR 20/16 A3002 RMK AO1

More Conditions Fewer Conditions

Pressure 30.02 in
Visibility 10.0 miles
Clouds Clear
Dew Point 62 °F
Humidity 81%
Rainfall 0.00 in
Snow Depth Not available.
UV 0 out of 12
Pollen 10.70 out of 12
Air Quality Not available.
Flu Activity Local Activity
METAR KCWI 070035Z AUTO 28003KT 10SM CLR 20/16 A3002 RMK AO1

More Conditions Fewer Conditions

10-Day Weather Forecast

Almanac

Astronomy

May. 06, 2015 Rise Set
Actual Time
Civil Twilight
Nautical Twilight
Astronomical Twilight
Moon
Length of Visible Light
Length of Day
Tomorrow will be .
, % of the Moon is Illuminated

Today's Extremes

State Highs State Lows

Community

WunderPhotos

Upload Photos

1,819,061 photos uploaded!

WunderBlogs® & News

Nearby

Air Quality

  Air Quality AQ Index Pollutant
Not available.

Snow Depth

Station Depth Elevation

Earthquake Activity

City Distance Mag. Time & Date
Minimum magnitude displayed is 2.5.

Coastal Water Temperatures

Place Temperature

Stations

Nearby Weather Stations

Station Location Temp. Windchill Dew Point Humidity Wind Precip. Elev Updated Type